Latest Weather Observations for Wyndham Airport

IDW60801

Issued at 6:04 am WST Friday 22 January 2021 (issued every 10 minutes, with the page automatically refreshed every 10 minutes)

About weather observations | Map of weather stations | Latest weather observations for WA | Other Formats
Station Details ID: 001006 Name: WYNDHAM AERO Lat: -15.51 Lon: 128.15 Height: 3.8 m
Data from the previous 72 hours. | See also: Recent months at Wyndham Airport
Date/Time
WST
Temp
°C
App
Temp
°C
Dew
Point
°C
Rel
Hum
%
Delta-T
°C
Wind Press
QNH
hPa
Press
MSL
hPa
Rain since
9am
mm
Dir  Spd
km/h
Gust
km/h
Spd
kts
Gust
kts
22/06:00am 28.6 35.4 25.6 84 2.1 CALM 0 0 0 0 1007.7 1007.7 0.0
22/05:30am 28.5 35.3 25.5 84 2.1 CALM 0 0 0 0 1007.5 1007.5 0.0
22/05:00am 28.2 34.1 25.4 85 2.0 W 4 7 2 4 1007.2 1007.2 0.0
22/04:30am 28.4 35.1 25.4 84 2.1 CALM 0 0 0 0 1006.8 1006.8 0.0
22/04:00am 29.0 34.6 25.4 81 2.5 W 6 7 3 4 1006.6 1006.6 0.0
22/03:30am 29.0 34.6 25.4 81 2.5 W 6 7 3 4 1006.6 1006.6 0.0
22/03:00am 29.2 34.2 25.4 80 2.7 W 9 11 5 6 1006.2 1006.2 0.0
22/02:30am 29.3 33.6 25.5 80 2.7 WNW 13 15 7 8 1005.9 1005.9 0.0
22/02:00am 29.2 34.3 25.6 81 2.5 N 9 11 5 6 1006.0 1006.0 0.0
22/01:30am 28.8 34.1 25.2 81 2.5 N 7 9 4 5 1006.0 1006.0 0.0
22/01:00am 29.3 35.1 25.7 81 2.6 N 6 7 3 4 1006.1 1006.1 0.0
22/12:30am 29.2 36.0 25.6 81 2.5 CALM 0 0 0 0 1006.9 1006.9 0.0
22/12:00am 29.2 35.7 25.6 81 2.5 N 2 6 1 3 1007.3 1007.3 0.0
 
Date/Time
WST
Temp
°C
App
Temp
°C
Dew
Point
°C
Rel
Hum
%
Delta-T
°C
Wind Press
QNH
hPa
Press
MSL
hPa
Rain since
9am
mm
Dir  Spd
km/h
Gust
km/h
Spd
kts
Gust
kts
21/11:30pm 29.4 35.1 25.6 80 2.7 N 6 9 3 5 1007.3 1007.3 0.0
21/11:00pm 29.4 35.0 25.4 79 2.8 N 6 7 3 4 1007.4 1007.4 0.0
21/10:30pm 29.4 34.4 25.4 79 2.8 N 9 13 5 7 1007.7 1007.7 0.0
21/10:00pm 29.6 34.6 25.4 78 3.0 N 9 11 5 6 1008.2 1008.2 0.0
21/09:30pm 29.7 34.1 25.0 76 3.3 N 11 19 6 10 1008.1 1008.1 0.0
21/09:00pm 29.7 33.9 25.4 78 3.0 NNE 13 15 7 8 1008.1 1008.1 0.0
21/08:30pm 29.9 34.1 25.4 77 3.2 NE 13 15 7 8 1007.9 1007.9 0.0
21/08:00pm 30.1 34.2 25.2 75 3.5 NNE 13 17 7 9 1007.6 1007.6 0.0
21/07:30pm 30.3 34.2 24.9 73 3.8 N 13 15 7 8 1007.2 1007.2 0.0
21/07:00pm 30.5 33.5 24.6 70 4.1 N 17 20 9 11 1007.2 1007.2 0.0
21/06:30pm 30.6 34.2 25.0 72 3.9 N 15 20 8 11 1006.7 1006.7 0.0
21/06:00pm 31.0 33.9 24.4 68 4.6 NNE 17 22 9 12 1006.4 1006.4 0.0
21/05:30pm 31.7 33.9 24.0 63 5.4 N 19 28 10 15 1005.9 1005.9 0.0
21/05:00pm 31.6 35.3 25.2 69 4.5 N 15 20 8 11 1005.4 1005.4 0.0
21/04:30pm 31.7 35.4 25.1 68 4.7 N 15 26 8 14 1005.1 1005.1 0.0
21/04:00pm 31.9 34.6 24.2 63 5.4 N 17 24 9 13 1005.1 1005.1 0.0
21/03:30pm 32.4 35.4 24.7 64 5.4 N 17 24 9 13 1005.1 1005.1 0.0
21/03:00pm 32.4 35.4 24.7 64 5.4 N 17 24 9 13 1005.3 1005.3 0.0
21/02:30pm 32.3 35.7 24.6 64 5.4 NNE 15 24 8 13 1005.9 1005.9 0.0
21/02:00pm 32.0 34.7 24.1 63 5.5 NNE 17 28 9 15 1006.3 1006.3 0.0
21/01:30pm 31.2 33.4 23.3 63 5.4 NE 17 24 9 13 1006.5 1006.5 0.0
21/01:00pm 31.1 32.9 23.2 63 5.4 NNE 19 28 10 15 1006.8 1006.8 0.0
21/12:30pm 32.3 32.8 23.3 59 6.2 NE 26 37 14 20 1007.2 1007.2 0.0
21/12:00pm 33.3 36.0 25.0 61 5.9 NNE 20 30 11 16 1007.5 1007.5 0.0
21/11:30am 33.1 36.3 24.3 60 6.2 ENE 15 22 8 12 1007.4 1007.4 0.0
21/11:00am 31.9 34.1 24.2 63 5.4 NNE 20 26 11 14 1007.5 1007.5 0.0
21/10:30am 32.1 34.3 24.9 65 5.1 NNE 22 33 12 18 1008.3 1008.3 0.0
21/10:00am 32.5 35.4 25.1 65 5.2 NE 19 26 10 14 1008.9 1008.9 0.0
21/09:30am 32.2 36.5 25.5 67 4.8 ENE 13 20 7 11 1008.7 1008.7 0.0
21/09:00am 30.8 33.8 24.7 70 4.3 NE 17 24 9 13 1009.8 1009.8 3.2
21/08:30am 30.7 34.5 24.1 68 4.6 ENE 11 19 6 10 1010.2 1010.2 3.2
21/08:00am 29.8 34.5 24.9 75 3.4 ESE 9 11 5 6 1010.2 1010.2 3.2
21/07:30am 28.6 33.1 24.6 79 2.8 ESE 9 11 5 6 1010.2 1010.2 3.2
21/07:00am 27.2 31.6 24.5 85 1.9 SE 9 11 5 6 1009.5 1009.5 3.2
21/06:30am 27.3 32.1 24.4 84 2.0 ESE 7 9 4 5 1009.2 1009.2 3.2
21/06:00am 26.5 31.6 24.7 90 1.3 ESE 6 7 3 4 1009.2 1009.2 3.2
21/05:30am 25.5 30.4 24.3 93 0.8 ESE 6 7 3 4 1008.9 1008.9 3.2
21/05:00am 25.4 30.9 24.0 92 1.0 ESE 2 7 1 4 1008.9 1008.9 3.2
21/04:30am 25.5 31.3 23.9 91 1.1 CALM 0 0 0 0 1008.3 1008.3 3.2
21/04:00am 25.4 29.5 24.0 92 1.0 ESE 9 11 5 6 1007.7 1007.7 3.0
21/03:30am 25.4 30.0 24.2 93 0.8 ESE 7 7 4 4 1008.0 1008.0 3.0
21/03:00am 25.4 29.7 24.2 93 0.8 ESE 9 13 5 7 1007.9 1007.9 3.0
21/02:30am 25.3 28.2 23.9 92 1.0 SE 15 17 8 9 1007.6 1007.6 3.0
21/02:00am 25.3 28.4 24.1 93 0.8 ESE 15 17 8 9 1007.8 1007.8 2.6
21/01:30am 25.5 28.4 23.9 91 1.1 ESE 15 19 8 10 1008.2 1008.2 2.6
21/01:00am 26.0 30.1 24.6 92 1.0 ENE 11 15 6 8 1008.1 1008.1 2.4
21/12:30am 25.8 30.4 24.2 91 1.1 ENE 7 9 4 5 1008.7 1008.7 2.4
21/12:00am 25.7 30.3 24.1 91 1.1 E 7 9 4 5 1008.9 1008.9 2.4
 
Date/Time
WST
Temp
°C
App
Temp
°C
Dew
Point
°C
Rel
Hum
%
Delta-T
°C
Wind Press
QNH
hPa
Press
MSL
hPa
Rain since
9am
mm
Dir  Spd
km/h
Gust
km/h
Spd
kts
Gust
kts
20/11:30pm 25.9 29.7 24.1 90 1.2 ENE 11 13 6 7 1009.5 1009.5 1.8
20/11:00pm 26.3 31.1 24.2 88 1.4 SSW 6 7 3 4 1009.9 1009.9 1.2
20/10:30pm 26.2 30.9 23.9 87 1.6 SSW 6 7 3 4 1009.8 1009.8 1.2
20/10:00pm 26.2 31.4 23.5 85 1.8 SSW 2 7 1 4 1009.7 1009.7 1.2
20/09:30pm 26.1 31.6 23.4 85 1.8 CALM 0 0 0 0 1009.5 1009.5 1.2
20/09:00pm 25.9 30.3 23.4 86 1.7 SSW 6 6 3 3 1009.5 1009.5 1.2
20/08:30pm 25.9 31.4 23.4 86 1.7 CALM 0 7 0 4 1009.4 1009.4 1.2
20/08:00pm 26.2 30.8 23.1 83 2.1 SSW 4 6 2 3 1009.3 1009.3 1.2
20/07:30pm 26.2 30.1 22.9 82 2.2 SSW 7 9 4 5 1009.1 1009.1 1.2
20/07:00pm 26.0 29.4 23.3 85 1.8 SSW 11 15 6 8 1008.7 1008.7 1.2
20/06:30pm 25.9 29.8 23.0 84 2.0 SW 7 9 4 5 1008.3 1008.3 1.2
20/06:00pm 26.1 29.8 23.2 84 2.0 SW 9 11 5 6 1007.8 1007.8 1.2
20/05:30pm 26.2 29.6 23.3 84 2.0 W 11 15 6 8 1007.4 1007.4 1.2
20/05:00pm 26.1 29.9 22.8 82 2.2 W 7 9 4 5 1007.4 1007.4 1.0
20/04:30pm 25.9 29.6 23.2 85 1.8 SE 9 19 5 10 1007.4 1007.4 1.0
20/04:00pm 25.3 24.3 22.6 85 1.8 N 32 44 17 24 1007.6 1007.6 0.8
20/03:30pm 28.2 24.3 22.2 70 4.0 NNW 46 61 25 33 1007.4 1007.4 0.6
20/03:01pm 29.9 25.4 21.0 59 5.9 N 46 72 25 39 1007.0 1007.0 0.6
20/03:00pm 30.4 26.5 21.5 59 6.0 N 44 63 24 34 1006.9 1006.9 0.6
20/02:53pm 32.9 32.5 22.4 54 7.2 N 28 48 15 26 1006.6 1006.6 0.6
20/02:30pm 32.2 34.3 23.7 61 5.9 NE 19 30 10 16 1006.4 1006.4 0.6
20/02:00pm 33.6 35.8 24.2 58 6.6 ESE 20 28 11 15 1006.3 1006.3 0.2
20/01:30pm 35.0 36.1 22.0 46 8.9 NNE 19 26 10 14 1006.3 1006.3 0.2
20/01:00pm 35.2 37.2 22.9 49 8.5 NNE 17 28 9 15 1006.6 1006.6 0.2
20/12:30pm 34.5 35.7 21.5 46 8.8 NE 17 32 9 17 1006.9 1006.9 0.2
20/12:00pm 35.0 36.1 22.3 47 8.7 ENE 20 26 11 14 1007.2 1007.2 0.2
20/11:30am 33.5 34.0 22.6 53 7.5 ENE 24 33 13 18 1007.5 1007.5 0.2
20/11:00am 33.6 34.7 23.0 54 7.3 ENE 22 35 12 19 1007.6 1007.6 0.2
20/10:30am 32.7 33.6 23.3 57 6.5 E 24 35 13 19 1007.7 1007.7 0.2
20/10:00am 32.9 33.7 23.8 58 6.3 E 26 35 14 19 1008.0 1008.0 0.2
20/09:30am 31.9 33.6 24.0 63 5.5 E 22 32 12 17 1008.5 1008.5 0.0
20/09:00am 30.8 33.0 24.2 68 4.6 E 20 26 11 14 1008.7 1008.7 1.0
20/08:30am 29.5 31.8 24.4 74 3.6 ESE 20 24 11 13 1008.7 1008.7 1.0
20/08:00am 28.7 30.9 24.3 77 3.1 ESE 20 26 11 14 1008.7 1008.7 1.0
20/07:30am 28.1 30.8 24.1 79 2.8 ESE 17 22 9 12 1009.1 1009.1 1.0
20/07:00am 27.5 30.7 24.4 83 2.2 ESE 15 20 8 11 1009.3 1009.3 1.0
20/06:30am 26.9 30.7 24.7 88 1.5 ESE 13 15 7 8 1009.2 1009.2 1.0
20/06:00am 26.6 30.5 24.3 87 1.6 ESE 11 13 6 7 1009.1 1009.1 1.0
20/05:30am 26.7 31.1 24.5 88 1.5 ESE 9 11 5 6 1009.0 1009.0 1.0
20/05:00am 26.3 31.0 24.3 89 1.4 ESE 7 9 4 5 1008.7 1008.7 1.0
20/04:30am 26.6 31.5 24.3 87 1.6 ESE 6 6 3 3 1008.2 1008.2 0.8
20/04:00am 26.5 31.3 24.2 87 1.6 ESE 6 7 3 4 1007.7 1007.7 0.8
20/03:30am 26.5 31.0 24.0 86 1.7 ESE 7 9 4 5 1007.4 1007.4 0.8
20/03:00am 26.6 30.2 23.7 84 2.0 E 11 15 6 8 1007.1 1007.1 0.8
20/02:30am 26.6 30.6 23.7 84 2.0 E 9 11 5 6 1006.9 1006.9 0.8
20/02:00am 26.5 29.4 23.8 85 1.9 E 15 17 8 9 1006.9 1006.9 0.8
20/01:30am 26.4 29.6 23.7 85 1.9 E 13 19 7 10 1006.9 1006.9 0.8
20/01:00am 26.9 29.7 23.6 82 2.3 E 15 20 8 11 1007.0 1007.0 0.8
20/12:30am 26.9 30.9 24.4 86 1.7 E 11 15 6 8 1007.4 1007.4 0.8
20/12:00am 26.8 29.7 24.5 87 1.6 ESE 17 20 9 11 1007.6 1007.6 0.8
 
Date/Time
WST
Temp
°C
App
Temp
°C
Dew
Point
°C
Rel
Hum
%
Delta-T
°C
Wind Press
QNH
hPa
Press
MSL
hPa
Rain since
9am
mm
Dir  Spd
km/h
Gust
km/h
Spd
kts
Gust
kts
19/11:30pm 26.8 30.0 24.3 86 1.7 E 15 20 8 11 1008.4 1008.4 0.8
19/11:00pm 26.6 28.4 24.3 87 1.6 ESE 22 26 12 14 1008.3 1008.3 0.8
19/10:30pm 26.7 29.2 24.5 88 1.5 ESE 19 24 10 13 1009.1 1009.1 0.8
19/10:00pm 26.9 29.9 24.7 88 1.5 E 17 20 9 11 1009.3 1009.3 0.8
19/09:30pm 27.0 29.2 24.3 85 1.9 E 20 33 11 18 1009.2 1009.2 0.8
19/09:00pm 27.1 29.8 24.2 84 2.0 ENE 17 24 9 13 1008.8 1008.8 0.6
19/08:30pm 27.6 28.8 23.8 80 2.6 E 24 33 13 18 1008.1 1008.1 0.0
19/08:00pm 30.1 30.4 22.3 63 5.3 ENE 24 33 13 18 1007.1 1007.1 0.0
19/07:30pm 32.0 32.1 19.9 48 8.0 NE 19 28 10 15 1006.9 1006.9 0.0
19/07:00pm 31.6 33.8 19.6 49 7.9 ESE 7 11 4 6 1006.6 1006.6 0.0
19/06:30pm 31.8 33.5 19.4 47 8.1 ESE 9 11 5 6 1006.4 1006.4 0.0
19/06:00pm 32.2 34.4 19.5 47 8.4 ESE 7 9 4 5 1005.9 1005.9 0.0
19/05:30pm 33.3 35.0 18.6 41 9.6 ESE 7 11 4 6 1005.2 1005.2 0.0
19/05:00pm 33.3 34.6 19.4 44 9.2 SE 11 13 6 7 1005.1 1005.1 0.0
19/04:30pm 33.9 34.8 18.4 40 10.1 SSE 11 13 6 7 1004.4 1004.4 0.0
19/04:00pm 34.0 34.6 17.7 38 10.5 SE 11 13 6 7 1004.2 1004.2 0.0
19/03:30pm 34.1 34.1 17.3 36 10.8 SSE 13 17 7 9 1004.3 1004.3 0.0
19/03:00pm 34.3 35.2 17.5 36 10.8 ESE 9 13 5 7 1004.6 1004.6 0.0
19/02:30pm 34.2 34.5 17.0 36 11.0 E 11 15 6 8 1004.8 1004.8 0.0
19/02:00pm 34.1 34.0 16.9 36 11.0 E 13 17 7 9 1005.2 1005.2 0.0
19/01:30pm 34.0 33.6 17.2 36 10.8 E 15 19 8 10 1005.4 1005.4 0.0
19/01:00pm 33.8 33.0 17.1 37 10.7 E 17 22 9 12 1005.9 1005.9 0.0
19/12:30pm 33.9 32.6 16.7 35 10.9 E 19 22 10 12 1006.1 1006.1 0.0
19/12:00pm 33.9 32.8 17.2 37 10.7 E 19 24 10 13 1006.3 1006.3 0.0
19/11:30am 33.8 32.6 17.5 38 10.5 E 20 28 11 15 1006.5 1006.5 0.0
19/11:00am 34.3 32.9 17.1 36 11.0 E 20 26 11 14 1006.7 1006.7 0.0
19/10:30am 33.8 32.8 17.5 38 10.5 ESE 19 24 10 13 1006.9 1006.9 0.0
19/10:00am 33.5 32.6 16.8 36 10.6 E 17 24 9 13 1007.1 1007.1 0.0
19/09:30am 33.5 32.9 17.6 38 10.2 ESE 17 24 9 13 1007.1 1007.1 0.0
19/09:00am 33.1 32.2 16.9 38 10.3 ESE 17 24 9 13 1007.4 1007.4 0.0
19/08:30am 32.7 33.6 18.5 43 9.2 SE 11 17 6 9 1007.5 1007.5 0.0
19/08:00am 31.8 33.5 18.4 45 8.7 SE 7 11 4 6 1007.4 1007.4 0.0
19/07:30am 30.9 32.6 18.6 48 8.0 SE 7 9 4 5 1007.3 1007.3 0.0
19/07:00am 30.6 32.5 19.0 50 7.6 SE 7 11 4 6 1007.2 1007.2 0.0
19/06:30am 29.1 32.4 20.0 58 6.0 SE 2 7 1 4 1007.2 1007.2 0.0

Other formats

Comma delimited format used in spreadsheet applications
http://www.bom.gov.au/fwo/IDW60801/IDW60801.95214.axf

JavaScript Object Notation format (JSON) in row-major order
http://www.bom.gov.au/fwo/IDW60801/IDW60801.95214.json

Data quality

Most of these data are generated automatically and are frequently updated. Quality checks on data are not normally performed. It is possible for incorrect values to appear. Refer to information at About Latest Weather Observations and please check the disclaimer before using these data.